Beira, Mozambique
Current Conditions -  °F | °C
As of 9:00 PM on Thursday 23 Oct 2014 (Local Time) from FQBR Reporting Station
Few Clouds Few Clouds  
Wind Chill: 72°   Ceiling: Unl
Heat Index: 72°   Visibility: 6mi
Dew Point: 64°   Wind: 5mph
Humidity: 78%   Direction: 360°N
Pressure: 29.91"   Gusts: NA
Location:  19.83°S, 34.84°E
Report Text: FQBR 231900Z 36004KT 9999 FEW020 22/18 Q1013
Loading
Personal Weather Stations






























Interactive Weather Map
Tropical Storm Tracking
New forecast layout! Learn more

10-Day Weather Forecast

Advertisements
Track Severe Weather on mobile